Time;durP1;ratioP1;P1;durP2;ratioP2;P2;SDS_P1;SDS_P2;PMS_P1;PMS_P2;Temp;Humidity;BMP_temperature;BMP_pressure;BME280_temperature;BME280_humidity;BME280_pressure;Samples;Min_cycle;Max_cycle;Signal;HPM_P1;HPM_P2
2021/03/30 00:00:16;;;;;;;26.23;15.18;;;;;;;7.95;83.03;102905.19;5048073;28;20029;-82
2021/03/30 00:02:42;;;;;;;25.17;13.95;;;;;;;7.92;82.66;102916.22;5047554;28;20036;-81
2021/03/30 00:05:08;;;;;;;24.92;14.07;;;;;;;7.93;81.70;102908.03;5040038;28;20029;-82
2021/03/30 00:07:34;;;;;;;20.50;12.23;;;;;;;7.98;80.11;102918.16;5041579;28;20681;-82
2021/03/30 00:09:59;;;;;;;19.30;12.38;;;;;;;7.96;79.59;102918.34;5043519;28;20029;-82
2021/03/30 00:12:25;;;;;;;21.33;11.90;;;;;;;7.86;80.27;102917.72;5045358;28;20094;-82
2021/03/30 00:14:50;;;;;;;18.17;11.30;;;;;;;7.91;79.61;102917.22;5047101;28;20029;-82
2021/03/30 00:17:16;;;;;;;15.10;10.68;;;;;;;7.73;79.28;102928.19;5045870;28;20036;-82
2021/03/30 00:19:41;;;;;;;16.90;10.13;;;;;;;7.59;79.86;102924.41;5042058;28;20042;-81
2021/03/30 00:22:07;;;;;;;19.73;11.65;;;;;;;7.47;80.50;102931.97;5046306;28;20192;-82
2021/03/30 00:24:33;;;;;;;16.77;9.68;;;;;;;7.46;81.10;102932.97;5038544;28;20022;-82
2021/03/30 00:26:58;;;;;;;25.67;15.32;;;;;;;7.38;83.54;102941.03;5046738;28;20056;-82
2021/03/30 00:29:24;;;;;;;23.92;12.88;;;;;;;7.45;82.11;102931.31;5047617;28;20036;-81
2021/03/30 00:31:49;;;;;;;24.10;14.55;;;;;;;7.49;82.02;102924.63;5043896;28;20484;-82
2021/03/30 00:34:15;;;;;;;23.90;15.45;;;;;;;7.43;82.63;102929.81;5049930;28;20131;-82
2021/03/30 00:36:41;;;;;;;18.30;12.85;;;;;;;7.44;81.80;102920.81;5042330;28;20048;-82
2021/03/30 00:39:06;;;;;;;17.83;11.27;;;;;;;7.40;81.29;102928.34;5050040;28;20025;-81
2021/03/30 00:41:40;;;;;;;23.98;14.40;;;;;;;7.31;81.90;102929.38;5045031;28;20108;-82
2021/03/30 00:44:12;;;;;;;22.40;13.43;;;;;;;7.29;82.02;102926.03;5042228;28;20033;-81
2021/03/30 00:46:40;;;;;;;20.27;12.23;;;;;;;7.28;81.39;102932.38;5047924;28;20392;-82
2021/03/30 00:49:06;;;;;;;24.23;14.45;;;;;;;7.15;81.93;102926.75;5046567;28;20029;-82
2021/03/30 00:51:32;;;;;;;15.55;11.20;;;;;;;7.13;80.97;102932.25;5046793;28;20097;-82
2021/03/30 00:53:58;;;;;;;24.67;13.25;;;;;;;7.11;80.59;102928.13;5041060;28;20258;-82
2021/03/30 00:56:25;;;;;;;24.25;12.55;;;;;;;7.01;81.10;102936.31;5044703;28;20017;-83
2021/03/30 00:58:54;;;;;;;17.92;10.85;;;;;;;6.96;80.95;102930.66;5043696;28;20029;-82
2021/03/30 01:01:20;;;;;;;22.35;13.50;;;;;;;6.88;81.13;102934.19;5042616;28;20036;-82
2021/03/30 01:03:45;;;;;;;40.60;19.27;;;;;;;6.80;85.35;102933.34;5046893;28;20184;-83
2021/03/30 01:06:11;;;;;;;31.05;17.25;;;;;;;6.75;85.22;102931.22;5046910;28;20099;-82
2021/03/30 01:09:12;;;;;;;31.13;18.38;;;;;;;6.81;86.32;102933.19;5041043;28;20425;-82
2021/03/30 01:12:04;;;;;;;25.73;16.15;;;;;;;6.84;86.46;102927.53;5030409;28;20079;-83
2021/03/30 01:14:48;;;;;;;30.95;18.02;;;;;;;6.93;84.82;102929.16;5043063;28;20029;-83
2021/03/30 01:17:36;;;;;;;32.85;16.38;;;;;;;7.00;84.02;102941.78;5060456;28;20064;-82
2021/03/30 01:20:39;;;;;;;22.23;14.45;;;;;;;7.00;82.97;102934.63;5042500;28;20040;-82
2021/03/30 01:23:20;;;;;;;21.95;11.95;;;;;;;6.97;82.21;102940.31;5056287;28;20031;-82
2021/03/30 01:26:06;;;;;;;19.00;12.30;;;;;;;6.81;82.69;102935.84;5044540;28;20052;-82
2021/03/30 01:28:52;;;;;;;19.58;13.40;;;;;;;6.65;83.84;102935.91;5043125;28;20124;-82
2021/03/30 01:31:21;;;;;;;27.15;14.57;;;;;;;6.76;82.91;102935.53;5046274;28;20039;-82
2021/03/30 01:33:48;;;;;;;29.90;16.83;;;;;;;6.74;84.02;102937.53;5048786;28;20518;-82
2021/03/30 01:36:14;;;;;;;23.70;12.68;;;;;;;6.72;83.73;102936.88;5043638;28;20051;-81
2021/03/30 01:38:42;;;;;;;20.63;13.38;;;;;;;6.71;83.61;102935.22;5044696;28;20678;-82
2021/03/30 01:41:09;;;;;;;24.80;13.70;;;;;;;6.56;83.05;102934.22;5042423;28;20049;-82
2021/03/30 01:43:35;;;;;;;19.40;11.48;;;;;;;6.49;83.75;102922.59;5046924;28;20029;-83
2021/03/30 01:46:01;;;;;;;18.63;12.38;;;;;;;6.59;82.15;102929.41;5044070;28;20037;-82
2021/03/30 01:48:27;;;;;;;22.65;14.02;;;;;;;6.52;82.22;102943.56;5047410;28;20025;-83
2021/03/30 01:50:54;;;;;;;19.85;11.65;;;;;;;6.42;82.95;102938.41;5046066;28;20119;-83
2021/03/30 01:53:22;;;;;;;19.15;12.35;;;;;;;6.38;82.38;102934.41;5049306;28;20020;-81
2021/03/30 01:55:52;;;;;;;26.50;14.95;;;;;;;6.27;84.35;102935.56;5045698;28;20033;-82
2021/03/30 01:58:20;;;;;;;37.70;18.23;;;;;;;6.32;84.65;102932.41;5047058;28;20036;-82
2021/03/30 02:00:47;;;;;;;40.35;19.35;;;;;;;6.33;85.29;102926.94;5048024;28;20040;-82
2021/03/30 02:03:15;;;;;;;32.38;17.70;;;;;;;6.31;86.05;102928.94;5050627;28;20025;-82
2021/03/30 02:05:42;;;;;;;34.67;16.98;;;;;;;6.35;86.06;102932.09;5047612;28;20550;-83
2021/03/30 02:08:08;;;;;;;26.83;15.90;;;;;;;6.45;85.16;102939.88;5044979;28;20115;-82
2021/03/30 02:13:09;;;;;;;17.73;12.20;;;;;;;6.48;82.68;102939.56;5050516;28;20044;-82
2021/03/30 02:15:34;;;;;;;27.58;16.02;;;;;;;6.35;84.40;102943.56;5048156;28;20124;-83
2021/03/30 02:18:05;;;;;;;36.85;17.60;;;;;;;6.36;85.71;102941.72;5044862;28;20053;-83
2021/03/30 02:20:37;;;;;;;44.72;19.67;;;;;;;6.33;88.15;102944.72;5043275;28;20120;-83
2021/03/30 02:23:09;;;;;;;34.13;18.48;;;;;;;6.26;88.61;102949.03;5041068;28;20426;-83
2021/03/30 02:25:36;;;;;;;33.85;17.35;;;;;;;6.22;89.69;102945.88;5050208;28;20075;-82
2021/03/30 02:28:09;;;;;;;29.42;16.25;;;;;;;6.28;87.70;102941.72;5042317;28;20028;-82
2021/03/30 02:30:36;;;;;;;29.23;16.00;;;;;;;6.36;86.13;102947.06;5052347;28;20192;-83
2021/03/30 02:33:05;;;;;;;29.73;16.00;;;;;;;6.29;85.17;102944.25;5047266;28;20573;-83
2021/03/30 02:35:32;;;;;;;22.95;11.73;;;;;;;6.20;84.98;102949.72;5046709;28;20060;-81
2021/03/30 02:38:00;;;;;;;26.02;13.27;;;;;;;6.11;85.79;102950.72;5045296;28;20025;-82
2021/03/30 02:40:26;;;;;;;20.27;12.55;;;;;;;6.22;83.42;102948.53;5063442;28;20035;-82
2021/03/30 02:42:54;;;;;;;18.25;10.85;;;;;;;6.15;83.29;102952.88;5050297;28;20025;-82
2021/03/30 02:45:26;;;;;;;18.27;10.20;;;;;;;5.99;83.59;102968.81;5046352;28;20832;-82
2021/03/30 02:47:55;;;;;;;20.13;12.02;;;;;;;5.91;84.08;102966.13;5048172;28;20025;-82
2021/03/30 02:50:22;;;;;;;28.85;14.10;;;;;;;5.84;85.11;102970.41;5044864;28;20029;-82
2021/03/30 02:52:48;;;;;;;19.60;11.13;;;;;;;5.76;85.01;102964.09;5047135;28;20037;-82
2021/03/30 02:55:14;;;;;;;21.15;11.60;;;;;;;5.73;84.99;102966.22;5043801;28;20021;-83
2021/03/30 02:57:41;;;;;;;28.67;14.00;;;;;;;5.66;84.67;102973.19;5048758;28;20029;-82
2021/03/30 03:00:12;;;;;;;32.10;16.13;;;;;;;5.64;87.69;102970.69;5044640;28;20682;-82
2021/03/30 03:02:38;;;;;;;28.70;16.15;;;;;;;5.68;87.17;102966.69;5052871;28;20394;-82
2021/03/30 03:05:06;;;;;;;23.95;14.02;;;;;;;5.72;86.09;102967.19;5048688;28;20428;-82
2021/03/30 03:07:33;;;;;;;23.17;12.93;;;;;;;5.69;86.17;102967.53;5050354;28;20029;-82
2021/03/30 03:10:01;;;;;;;19.88;12.82;;;;;;;5.64;85.88;102962.72;5049622;28;20120;-82
2021/03/30 03:12:30;;;;;;;21.42;12.68;;;;;;;5.65;85.71;102967.03;5052024;28;20021;-82
2021/03/30 03:14:58;;;;;;;25.90;14.55;;;;;;;5.62;86.54;102966.53;5047895;28;20051;-82
2021/03/30 03:17:25;;;;;;;23.33;12.23;;;;;;;5.62;85.31;102961.22;5053856;28;20021;-82
2021/03/30 03:19:51;;;;;;;27.95;15.15;;;;;;;5.55;85.43;102965.47;5042252;28;20495;-82
2021/03/30 03:22:17;;;;;;;24.15;12.77;;;;;;;5.51;85.39;102967.63;5045818;28;20037;-82
2021/03/30 03:24:47;;;;;;;23.65;14.02;;;;;;;5.44;85.22;102956.00;5046554;28;20079;-82
2021/03/30 03:27:13;;;;;;;23.67;12.73;;;;;;;5.37;84.68;102962.91;5042422;28;20029;-82
2021/03/30 03:29:39;;;;;;;16.20;11.95;;;;;;;5.30;84.82;102960.06;5039980;28;20029;-82
2021/03/30 03:32:05;;;;;;;28.77;15.13;;;;;;;5.23;85.38;102966.19;5059186;28;20428;-82
2021/03/30 03:34:31;;;;;;;35.28;17.13;;;;;;;5.23;86.07;102966.19;5041218;28;20086;-81
2021/03/30 03:37:00;;;;;;;46.30;20.77;;;;;;;5.23;86.33;102966.19;5037137;28;20018;-82
2021/03/30 03:39:26;;;;;;;37.10;16.90;;;;;;;5.24;86.40;102967.88;5044226;28;20033;-81
2021/03/30 03:41:51;;;;;;;28.67;16.60;;;;;;;5.24;86.69;102973.19;5034591;28;20063;-82
2021/03/30 03:44:17;;;;;;;25.35;14.27;;;;;;;5.23;86.63;102975.00;5042301;28;20040;-82
2021/03/30 03:46:43;;;;;;;25.98;14.00;;;;;;;5.21;87.57;102973.50;5039300;28;20129;-82
2021/03/30 03:49:10;;;;;;;42.35;20.00;;;;;;;5.23;88.76;102982.16;5047022;28;20029;-82
2021/03/30 03:51:45;;;;;;;40.50;18.52;;;;;;;5.23;87.90;102975.00;5048929;28;20494;-82
2021/03/30 03:54:13;;;;;;;37.60;17.65;;;;;;;5.38;88.62;102975.22;5041612;28;20029;-83
2021/03/30 03:56:57;;;;;;;31.83;16.75;;;;;;;5.32;89.04;102974.03;5037938;28;20053;-82
2021/03/30 03:59:26;;;;;;;40.33;19.48;;;;;;;5.40;88.29;102981.22;5038574;28;20044;-82
2021/03/30 04:02:01;;;;;;;36.60;18.02;;;;;;;5.45;87.46;102966.47;5039450;28;20533;-82
2021/03/30 04:04:59;;;;;;;34.55;17.10;;;;;;;5.45;88.43;102982.41;5039091;28;20021;-82
2021/03/30 04:07:30;;;;;;;20.10;11.57;;;;;;;5.47;86.35;102976.94;5039089;28;20057;-81
2021/03/30 04:09:57;;;;;;;20.23;12.27;;;;;;;5.35;86.01;102972.88;5046951;28;20037;-82
2021/03/30 04:12:27;;;;;;;31.13;16.52;;;;;;;5.34;88.16;102976.53;5042648;28;20052;-82
2021/03/30 04:14:53;;;;;;;44.03;20.17;;;;;;;5.34;91.12;102979.19;5040112;28;20056;-82
2021/03/30 04:17:19;;;;;;;42.72;18.60;;;;;;;5.41;90.72;102975.75;5037185;28;20032;-82
2021/03/30 04:19:45;;;;;;;27.48;13.85;;;;;;;5.49;88.69;102982.91;5043665;28;20036;-82
2021/03/30 04:22:16;;;;;;;37.22;18.00;;;;;;;5.45;90.29;102986.91;5049766;28;20421;-81
2021/03/30 04:24:43;;;;;;;48.92;20.88;;;;;;;5.44;91.15;102986.06;5047402;28;20450;-82
2021/03/30 04:27:13;;;;;;;59.30;23.67;;;;;;;5.44;90.94;102985.22;5045821;28;20514;-82
2021/03/30 04:29:40;;;;;;;67.65;25.00;;;;;;;5.46;91.73;102988.56;5046287;28;20029;-83
2021/03/30 04:32:06;;;;;;;44.55;20.30;;;;;;;5.55;90.43;102981.44;5040661;28;20380;-82
2021/03/30 04:34:32;;;;;;;59.67;24.02;;;;;;;5.55;92.20;102981.44;5042521;28;20430;-82
2021/03/30 04:36:57;;;;;;;44.55;21.80;;;;;;;5.58;91.99;102987.28;5038173;28;20021;-82
2021/03/30 04:39:23;;;;;;;49.65;22.08;;;;;;;5.62;91.22;102985.97;5044883;28;20040;-81
2021/03/30 04:41:49;;;;;;;53.17;24.02;;;;;;;5.65;91.70;102987.47;5043183;28;20037;-82
2021/03/30 04:44:14;;;;;;;48.88;21.75;;;;;;;5.74;90.74;102994.47;5044180;28;20045;-82
2021/03/30 04:46:40;;;;;;;32.42;18.73;;;;;;;5.79;89.76;102997.50;5048400;28;20040;-82
2021/03/30 04:49:05;;;;;;;31.08;16.02;;;;;;;5.78;89.16;102989.69;5046270;28;20029;-82
2021/03/30 04:51:31;;;;;;;35.65;16.48;;;;;;;5.76;88.52;102996.00;5040620;28;20484;-82
2021/03/30 04:53:57;;;;;;;33.05;16.60;;;;;;;5.78;88.04;102995.84;5038942;28;20013;-82
2021/03/30 04:56:22;;;;;;;27.80;15.60;;;;;;;5.71;87.88;102997.47;5040479;28;20044;-83
2021/03/30 04:58:48;;;;;;;29.17;14.95;;;;;;;5.67;88.16;103007.59;5046081;28;20495;-82
2021/03/30 05:01:13;;;;;;;34.35;17.05;;;;;;;5.66;88.69;102994.47;5045767;28;20029;-80
2021/03/30 05:03:39;;;;;;;34.45;17.67;;;;;;;5.78;88.73;102992.34;5037908;28;20056;-80
2021/03/30 05:06:05;;;;;;;33.63;18.88;;;;;;;5.89;87.83;102997.34;5040248;28;20033;-80
2021/03/30 05:08:31;;;;;;;35.10;18.98;;;;;;;5.95;88.77;103002.91;5045375;28;20134;-80
2021/03/30 05:10:56;;;;;;;36.13;19.25;;;;;;;6.10;87.31;103002.25;5040482;28;20033;-80
2021/03/30 05:13:22;;;;;;;31.63;17.00;;;;;;;6.13;88.01;102997.47;5042497;28;20088;-81
2021/03/30 05:15:48;;;;;;;35.65;19.00;;;;;;;6.16;91.13;102999.78;5040372;28;20033;-80
2021/03/30 05:18:13;;;;;;;35.83;18.33;;;;;;;6.25;90.39;102997.97;5036559;28;20033;-80
2021/03/30 05:20:39;;;;;;;40.13;18.27;;;;;;;6.39;88.40;102996.47;5039396;28;20026;-80
2021/03/30 05:23:04;;;;;;;35.58;17.83;;;;;;;6.54;86.92;103008.97;5047814;28;20421;-80
2021/03/30 05:25:30;;;;;;;32.05;17.80;;;;;;;6.65;85.81;103010.50;5039778;28;20055;-81
2021/03/30 05:27:56;;;;;;;31.92;15.95;;;;;;;6.72;85.43;103008.81;5043325;28;20447;-81
2021/03/30 05:30:22;;;;;;;20.77;12.60;;;;;;;6.83;84.28;103016.47;5041984;28;20029;-80
2021/03/30 05:32:47;;;;;;;26.63;15.43;;;;;;;6.94;84.13;103017.94;5039523;28;20285;-81
2021/03/30 05:35:13;;;;;;;28.67;14.52;;;;;;;7.08;83.91;103016.44;5034929;28;20028;-80
2021/03/30 05:37:39;;;;;;;23.02;13.57;;;;;;;7.23;83.14;103014.75;5041739;28;20372;-81
2021/03/30 05:40:13;;;;;;;27.33;15.38;;;;;;;7.41;82.29;103018.03;5037903;28;20036;-80
2021/03/30 05:42:39;;;;;;;21.33;12.20;;;;;;;7.60;81.74;103022.13;5042285;28;20039;-81
2021/03/30 05:45:07;;;;;;;26.63;14.02;;;;;;;7.84;81.27;103016.66;5037702;28;20281;-80
2021/03/30 05:47:33;;;;;;;22.65;13.60;;;;;;;8.41;79.28;103021.69;5036681;28;20026;-80
2021/03/30 05:50:00;;;;;;;23.80;14.55;;;;;;;9.06;77.82;103020.28;5040780;28;20035;-80
2021/03/30 05:52:44;;;;;;;23.23;12.10;;;;;;;9.67;75.59;103027.13;5044477;28;20124;-81
2021/03/30 05:55:15;;;;;;;27.05;14.45;;;;;;;10.14;73.88;103027.69;5045887;28;20029;-81
2021/03/30 05:57:43;;;;;;;24.45;13.50;;;;;;;10.19;74.95;103025.25;5061263;28;20503;-81
2021/03/30 06:00:13;;;;;;;26.13;13.80;;;;;;;10.11;76.31;103026.22;5043513;28;20025;-81
2021/03/30 06:02:45;;;;;;;26.42;13.23;;;;;;;9.49;79.51;103032.03;5039458;28;20500;-80
2021/03/30 06:05:16;;;;;;;23.00;13.45;;;;;;;9.16;81.44;103039.59;5046304;28;20120;-81
2021/03/30 06:07:43;;;;;;;25.92;14.85;;;;;;;9.32;79.84;103034.06;5036940;28;20455;-80
2021/03/30 06:10:15;;;;;;;25.52;13.68;;;;;;;9.53;79.84;103035.19;5040080;28;20049;-80
2021/03/30 06:12:41;;;;;;;28.10;13.88;;;;;;;9.67;79.08;103040.50;5036508;28;20041;-81
2021/03/30 06:15:09;;;;;;;31.80;14.93;;;;;;;9.75;79.77;103041.44;5040991;28;20025;-80
2021/03/30 06:17:45;;;;;;;32.28;15.05;;;;;;;9.68;81.14;103042.16;5037564;28;20116;-81
2021/03/30 06:20:14;;;;;;;27.15;14.20;;;;;;;9.57;82.28;103042.66;5034552;28;20143;-80
2021/03/30 06:23:09;;;;;;;25.52;14.77;;;;;;;9.52;83.22;103049.59;5038612;28;20039;-80
2021/03/30 06:25:45;;;;;;;24.25;13.88;;;;;;;9.57;83.65;103049.84;5028207;28;20131;-80
2021/03/30 06:28:22;;;;;;;24.35;14.90;;;;;;;9.87;82.47;103054.13;5043019;28;20502;-80
2021/03/30 06:31:03;;;;;;;25.63;14.80;;;;;;;10.11;82.22;103054.84;5036950;28;21143;-79
2021/03/30 06:33:31;;;;;;;25.33;13.90;;;;;;;10.36;81.56;103056.19;5041467;28;20028;-80
2021/03/30 06:36:24;;;;;;;26.25;13.15;;;;;;;10.72;80.16;103047.25;5037564;28;20068;-80
2021/03/30 06:39:03;;;;;;;24.95;14.32;;;;;;;11.05;77.96;103056.41;5036370;28;20068;-80
2021/03/30 06:41:50;;;;;;;22.83;14.13;;;;;;;11.27;77.38;103051.81;5041387;28;20112;-80
2021/03/30 06:46:57;;;;;;;25.88;13.80;;;;;;;11.67;75.95;103050.19;5035506;28;20746;-82
2021/03/30 06:49:24;;;;;;;23.75;13.60;;;;;;;11.87;75.29;103044.13;5036305;28;20037;-82
2021/03/30 06:51:51;;;;;;;31.77;14.20;;;;;;;12.03;74.50;103057.19;5039452;28;20748;-82
2021/03/30 06:54:16;;;;;;;27.48;13.18;;;;;;;12.23;74.08;103058.09;5037616;28;20115;-81
2021/03/30 06:56:57;;;;;;;24.08;12.65;;;;;;;12.28;73.73;103063.66;5043345;28;20076;-82
2021/03/30 06:59:24;;;;;;;26.60;13.43;;;;;;;12.36;73.81;103057.25;5037029;28;20028;-82
2021/03/30 07:01:53;;;;;;;22.88;13.50;;;;;;;12.39;73.82;103059.56;5036688;28;22027;-82
2021/03/30 07:04:18;;;;;;;27.77;14.02;;;;;;;12.45;73.76;103057.91;5039886;28;20499;-83
2021/03/30 07:07:02;;;;;;;21.38;12.65;;;;;;;12.51;72.96;103054.41;5041613;28;20036;-82
2021/03/30 07:09:28;;;;;;;22.23;13.95;;;;;;;12.71;72.73;103055.25;5043617;28;20164;-82
2021/03/30 07:11:53;;;;;;;24.33;12.82;;;;;;;12.73;72.84;103055.03;5038922;28;20108;-80
2021/03/30 07:14:19;;;;;;;23.98;14.15;;;;;;;12.86;72.76;103053.19;5036701;28;20032;-80
2021/03/30 07:16:53;;;;;;;27.10;14.15;;;;;;;13.11;71.52;103050.72;5038303;28;20048;-83
2021/03/30 07:19:25;;;;;;;23.23;14.93;;;;;;;13.34;70.76;103055.66;5041494;28;20034;-80
2021/03/30 07:22:02;;;;;;;21.85;13.82;;;;;;;13.54;70.15;103056.44;5044402;28;20119;-81
2021/03/30 07:24:36;;;;;;;28.20;13.93;;;;;;;13.75;68.95;103057.19;5038723;28;20706;-81
2021/03/30 07:27:05;;;;;;;29.95;14.25;;;;;;;13.76;67.75;103053.47;5043316;28;20025;-81
2021/03/30 07:29:37;;;;;;;25.38;14.30;;;;;;;13.97;67.06;103063.94;5038872;28;20055;-81
2021/03/30 07:32:12;;;;;;;25.80;13.80;;;;;;;14.17;66.44;103063.84;5033948;28;21021;-81
2021/03/30 07:34:59;;;;;;;30.45;14.25;;;;;;;14.16;65.59;103059.50;5033052;28;20112;-81
2021/03/30 07:37:35;;;;;;;27.30;13.02;;;;;;;14.40;64.60;103066.00;5034834;28;20043;-81
2021/03/30 07:40:03;;;;;;;34.33;13.50;;;;;;;14.30;64.51;103071.03;5035776;28;20129;-81
2021/03/30 07:42:29;;;;;;;25.00;11.90;;;;;;;14.34;63.34;103066.84;5038838;28;20029;-81
2021/03/30 07:44:56;;;;;;;28.15;12.45;;;;;;;14.27;61.87;103071.47;5043676;28;20025;-80
2021/03/30 07:47:22;;;;;;;21.30;13.23;;;;;;;14.25;62.29;103065.47;5038855;28;20035;-80
2021/03/30 07:49:51;;;;;;;25.85;12.30;;;;;;;14.29;62.92;103069.38;5040327;28;20025;-80
2021/03/30 07:52:29;;;;;;;24.95;13.43;;;;;;;14.37;62.89;103071.84;5040730;28;20462;-81
2021/03/30 07:55:28;;;;;;;24.92;12.43;;;;;;;14.41;62.41;103070.34;5044139;28;20021;-80
2021/03/30 07:58:07;;;;;;;19.85;11.23;;;;;;;14.57;62.01;103067.16;5038706;28;20493;-80
2021/03/30 08:00:33;;;;;;;18.48;10.52;;;;;;;14.51;62.06;103068.03;5045734;28;20074;-80
2021/03/30 08:03:07;;;;;;;27.10;13.05;;;;;;;14.78;61.72;103066.81;5044239;28;20028;-80
2021/03/30 08:05:33;;;;;;;23.98;12.98;;;;;;;14.78;62.09;103074.06;5036346;28;20118;-81
2021/03/30 08:07:59;;;;;;;26.50;12.85;;;;;;;14.80;61.97;103066.56;5048394;28;20115;-83
2021/03/30 08:10:34;;;;;;;26.38;14.20;;;;;;;14.77;62.30;103073.25;5044770;28;20033;-84
2021/03/30 08:13:25;;;;;;;25.73;14.25;;;;;;;14.89;62.20;103081.44;5047423;28;20088;-81
2021/03/30 08:15:54;;;;;;;32.05;14.05;;;;;;;15.19;61.78;103073.50;5042787;28;20063;-80
2021/03/30 08:18:22;;;;;;;23.95;13.20;;;;;;;15.04;61.55;103078.41;5047387;28;20037;-81
2021/03/30 08:20:53;;;;;;;26.58;12.95;;;;;;;15.19;60.96;103076.19;5048903;28;20021;-80
2021/03/30 08:23:20;;;;;;;26.98;12.18;;;;;;;15.41;60.63;103080.13;5052658;28;20020;-81
2021/03/30 08:25:48;;;;;;;23.67;12.23;;;;;;;15.71;59.90;103084.84;5047283;28;20037;-81
2021/03/30 08:28:47;;;;;;;24.02;11.75;;;;;;;15.73;59.32;103082.72;5045480;28;20056;-81
2021/03/30 08:31:17;;;;;;;22.42;12.18;;;;;;;15.84;58.80;103073.03;5044204;28;20032;-81
2021/03/30 08:33:45;;;;;;;24.42;13.23;;;;;;;15.85;59.23;103074.69;5046485;28;20044;-81
2021/03/30 08:36:26;;;;;;;23.67;11.60;;;;;;;15.72;58.55;103072.97;5046734;28;20025;-80
2021/03/30 08:38:54;;;;;;;26.88;11.50;;;;;;;15.87;58.28;103072.59;5047443;28;20045;-81
2021/03/30 08:41:42;;;;;;;21.52;11.57;;;;;;;16.19;58.07;103075.91;5049344;28;20058;-81
2021/03/30 08:44:17;;;;;;;27.23;12.68;;;;;;;16.13;57.84;103071.41;5061926;28;20025;-82
2021/03/30 08:46:45;;;;;;;22.77;11.50;;;;;;;16.33;57.63;103074.66;5045619;28;20025;-82
2021/03/30 08:49:20;;;;;;;27.40;12.63;;;;;;;16.25;57.30;103075.00;5045240;28;20037;-83
2021/03/30 08:51:46;;;;;;;;;;;;;;;16.28;58.01;103072.66;5057433;28;20155;-83
2021/03/30 08:54:12;;;;;;;24.70;11.80;;;;;;;16.24;57.98;103068.75;5045472;28;19964;-81
2021/03/30 08:56:40;;;;;;;21.42;11.68;;;;;;;16.75;57.49;103070.09;5056248;28;20057;-81
2021/03/30 08:59:09;;;;;;;22.45;12.10;;;;;;;16.89;56.02;103068.84;5059229;28;20025;-81
2021/03/30 09:01:34;;;;;;;21.20;12.02;;;;;;;16.75;56.42;103072.81;5046966;28;20453;-81
2021/03/30 09:04:00;;;;;;;22.73;12.75;;;;;;;16.59;56.94;103071.56;5042734;28;20044;-83
2021/03/30 09:06:35;;;;;;;23.15;12.10;;;;;;;16.85;56.35;103075.75;5042762;28;20032;-83
2021/03/30 09:09:01;;;;;;;19.92;10.65;;;;;;;17.21;55.61;103069.31;5042009;28;20306;-81
2021/03/30 09:11:30;;;;;;;22.98;11.38;;;;;;;17.09;54.95;103076.63;5047649;28;20040;-80
2021/03/30 09:14:04;;;;;;;22.42;11.63;;;;;;;17.03;54.78;103072.13;5033356;28;20032;-81
2021/03/30 09:16:30;;;;;;;23.85;12.10;;;;;;;17.37;54.75;103069.66;5062669;28;20686;-80
2021/03/30 09:19:33;;;;;;;23.23;11.23;;;;;;;17.34;53.54;103072.84;5043747;28;20032;-80
2021/03/30 09:22:07;;;;;;;21.70;11.57;;;;;;;17.02;54.49;103072.34;5046369;28;20029;-80
2021/03/30 09:27:07;;;;;;;18.70;12.82;;;;;;;17.55;53.57;103072.22;5036500;28;20044;-81
2021/03/30 09:29:35;;;;;;;20.73;11.95;;;;;;;17.82;53.06;103069.84;5036713;28;20044;-80
2021/03/30 09:32:03;;;;;;;18.75;12.15;;;;;;;18.00;52.55;103074.25;5040825;28;20123;-79
2021/03/30 09:34:29;;;;;;;15.90;9.95;;;;;;;18.05;52.25;103066.22;5043552;28;20033;-81
2021/03/30 09:36:59;;;;;;;19.83;10.85;;;;;;;17.96;50.78;103065.78;5044503;28;20028;-79
2021/03/30 09:39:25;;;;;;;21.55;11.63;;;;;;;17.88;51.52;103065.34;5038307;28;20028;-82
2021/03/30 09:41:53;;;;;;;21.38;11.15;;;;;;;18.24;51.21;103064.13;5037384;28;20036;-82
2021/03/30 09:44:20;;;;;;;18.98;10.70;;;;;;;18.47;49.92;103065.88;5041035;28;20033;-83
2021/03/30 09:46:48;;;;;;;14.45;10.70;;;;;;;18.41;50.04;103065.00;5033937;28;20116;-84
2021/03/30 09:49:17;;;;;;;22.85;10.68;;;;;;;18.46;50.36;103054.22;5037311;28;20031;-82
2021/03/30 09:51:45;;;;;;;16.02;10.27;;;;;;;18.85;50.09;103057.91;5039747;28;20037;-82
2021/03/30 09:54:27;;;;;;;17.33;10.27;;;;;;;18.82;49.47;103055.66;5036944;28;20112;-82
2021/03/30 09:57:10;;;;;;;21.00;11.32;;;;;;;18.83;49.24;103060.03;5039696;28;20025;-83
2021/03/30 09:59:36;;;;;;;18.60;10.68;;;;;;;18.97;48.08;103049.66;5053689;28;20029;-83
2021/03/30 10:02:03;;;;;;;16.42;10.32;;;;;;;18.86;48.40;103048.69;5041583;28;20028;-82
2021/03/30 10:04:33;;;;;;;15.13;8.15;;;;;;;18.80;49.22;103041.50;5039089;28;20160;-83
2021/03/30 10:06:59;;;;;;;16.25;9.50;;;;;;;19.07;47.91;103049.81;5042653;28;20372;-82
2021/03/30 10:09:25;;;;;;;16.58;9.23;;;;;;;19.06;48.28;103047.34;5032232;28;20029;-83
2021/03/30 10:11:52;;;;;;;15.95;9.23;;;;;;;18.99;47.52;103053.75;5052727;28;20052;-81
2021/03/30 10:14:25;;;;;;;16.13;8.07;;;;;;;19.20;47.86;103051.34;5036943;28;20380;-82
2021/03/30 10:16:56;;;;;;;16.10;9.13;;;;;;;19.02;47.69;103047.81;5033610;28;20092;-81
2021/03/30 10:19:22;;;;;;;15.38;8.38;;;;;;;19.08;46.99;103045.19;5043554;28;20040;-82
2021/03/30 10:21:54;;;;;;;14.63;7.90;;;;;;;19.29;47.04;103045.22;5043162;28;20048;-82
2021/03/30 10:24:20;;;;;;;12.75;7.60;;;;;;;19.57;46.96;103044.28;5042604;28;20033;-82
2021/03/30 10:27:08;;;;;;;17.67;8.32;;;;;;;19.22;47.50;103036.44;5042659;28;20028;-84
2021/03/30 10:29:38;;;;;;;12.93;7.70;;;;;;;19.56;46.20;103042.59;5039141;28;20131;-84
2021/03/30 10:32:15;;;;;;;11.73;7.85;;;;;;;19.77;46.54;103037.44;5035184;28;20032;-85
2021/03/30 10:34:43;;;;;;;13.82;7.55;;;;;;;19.78;45.91;103030.94;5031712;28;20032;-87
2021/03/30 10:37:11;;;;;;;12.82;7.03;;;;;;;19.16;46.29;103033.88;5037363;28;20029;-85
2021/03/30 10:39:38;;;;;;;13.02;7.32;;;;;;;19.59;46.32;103025.81;5042715;28;20059;-84
2021/03/30 10:42:07;;;;;;;10.98;6.30;;;;;;;19.97;45.83;103025.97;5043059;28;20061;-85
2021/03/30 10:44:43;;;;;;;14.70;7.20;;;;;;;20.12;45.35;103018.78;5046425;28;20028;-82
2021/03/30 10:47:16;;;;;;;11.73;6.35;;;;;;;19.92;44.13;103016.66;5039999;28;20562;-82
2021/03/30 10:49:43;;;;;;;11.32;6.28;;;;;;;19.84;44.70;103008.94;5032530;28;20060;-83
2021/03/30 10:52:16;;;;;;;10.02;5.50;;;;;;;19.97;45.08;103015.91;5036608;28;20025;-84
2021/03/30 10:54:43;;;;;;;12.63;5.88;;;;;;;19.82;44.56;103008.38;5040290;28;20033;-81
2021/03/30 10:57:13;;;;;;;11.80;6.80;;;;;;;19.81;44.62;103005.94;5041098;28;20111;-82
2021/03/30 10:59:39;;;;;;;9.77;5.25;;;;;;;19.67;44.90;103007.41;5044053;28;20025;-82
2021/03/30 11:02:05;;;;;;;12.18;5.40;;;;;;;19.55;45.21;103007.53;5034488;28;20482;-81
2021/03/30 11:04:30;;;;;;;11.30;5.00;;;;;;;19.53;45.21;103005.03;5043749;28;20076;-81
2021/03/30 11:06:56;;;;;;;13.18;5.57;;;;;;;20.09;45.16;102994.78;5037284;28;20032;-81
2021/03/30 11:09:24;;;;;;;7.50;5.40;;;;;;;20.36;44.28;102999.38;5037735;28;20614;-82
2021/03/30 11:11:49;;;;;;;10.07;6.57;;;;;;;19.99;45.03;102991.97;5036906;28;20467;-83
2021/03/30 11:14:15;;;;;;;14.98;6.72;;;;;;;20.16;44.27;103000.84;5037298;28;20084;-81
2021/03/30 11:16:40;;;;;;;13.18;6.40;;;;;;;20.14;45.23;102989.41;5038802;28;20040;-82
2021/03/30 11:19:06;;;;;;;13.27;7.15;;;;;;;20.30;44.91;102995.00;5032925;28;20025;-80
2021/03/30 11:21:32;;;;;;;14.38;7.38;;;;;;;20.49;44.50;102988.91;5039349;28;20631;-82
2021/03/30 11:24:00;;;;;;;12.48;6.78;;;;;;;20.81;44.46;102991.56;5038264;28;20024;-82
2021/03/30 11:26:26;;;;;;;10.00;5.32;;;;;;;21.02;43.87;102976.19;5042988;28;20064;-80
2021/03/30 11:28:53;;;;;;;13.43;5.97;;;;;;;21.11;43.60;102980.03;5042025;28;20037;-83
2021/03/30 11:33:59;;;;;;;12.35;5.63;;;;;;;21.22;43.54;102969.19;5034893;28;20034;-82
2021/03/30 11:36:26;;;;;;;12.52;5.50;;;;;;;21.49;43.03;102974.50;5040366;28;20056;-81